Time;durP1;ratioP1;P1;durP2;ratioP2;P2;SDS_P1;SDS_P2;PMS_P1;PMS_P2;Temp;Humidity;BMP_temperature;BMP_pressure;BME280_temperature;BME280_humidity;BME280_pressure;Samples;Min_cycle;Max_cycle;Signal;HPM_P1;HPM_P2
2022/03/27 00:01:32;;;;;;;19.17;10.40;;;8.20;99.90;;;;;;5073614;28;20089;-55
2022/03/27 00:03:58;;;;;;;19.33;10.65;;;8.10;99.90;;;;;;5073778;28;20110;-54
2022/03/27 00:06:23;;;;;;;20.83;10.95;;;8.10;99.90;;;;;;5073141;28;20039;-55
2022/03/27 00:08:50;;;;;;;17.27;9.65;;;8.10;99.90;;;;;;5073734;28;20107;-54
2022/03/27 00:11:24;;;;;;;18.90;9.93;;;8.10;99.90;;;;;;5073123;28;20128;-55
2022/03/27 00:13:52;;;;;;;17.58;9.95;;;8.10;99.90;;;;;;5069779;28;20041;-55
2022/03/27 00:16:18;;;;;;;17.45;9.32;;;8.10;99.90;;;;;;5072779;28;20431;-55
2022/03/27 00:18:43;;;;;;;15.82;9.63;;;8.00;99.90;;;;;;5073298;28;20400;-55
2022/03/27 00:21:10;;;;;;;17.10;9.95;;;8.00;99.90;;;;;;5073354;28;20028;-54
2022/03/27 00:23:36;;;;;;;17.77;9.82;;;7.90;99.90;;;;;;5069561;28;20051;-54
2022/03/27 00:26:02;;;;;;;19.83;10.43;;;7.90;99.90;;;;;;5061730;28;20040;-52
2022/03/27 00:28:31;;;;;;;16.60;9.30;;;7.90;99.90;;;;;;5072564;28;20052;-55
2022/03/27 00:30:58;;;;;;;16.73;9.80;;;7.90;99.90;;;;;;5073584;28;20362;-55
2022/03/27 00:33:24;;;;;;;16.08;9.07;;;7.90;99.90;;;;;;5072976;28;20066;-56
2022/03/27 00:35:49;;;;;;;16.05;9.20;;;7.80;99.90;;;;;;5072903;28;20115;-57
2022/03/27 00:38:16;;;;;;;14.43;9.00;;;7.80;99.90;;;;;;5072721;28;20028;-57
2022/03/27 00:40:42;;;;;;;15.73;9.80;;;7.80;99.90;;;;;;5055698;28;20511;-57
2022/03/27 00:43:07;;;;;;;15.95;8.75;;;7.80;99.90;;;;;;5073117;28;20083;-57
2022/03/27 00:45:33;;;;;;;15.70;9.13;;;7.80;99.90;;;;;;5072381;28;20210;-57
2022/03/27 00:47:58;;;;;;;12.98;8.70;;;7.70;99.90;;;;;;5073091;28;20116;-55
2022/03/27 00:50:24;;;;;;;14.77;9.18;;;7.80;99.90;;;;;;5073037;28;20044;-57
2022/03/27 00:52:50;;;;;;;15.95;9.05;;;7.70;99.90;;;;;;5072926;28;20041;-57
2022/03/27 00:55:15;;;;;;;13.98;8.77;;;7.70;99.90;;;;;;5073556;28;20040;-57
2022/03/27 00:57:41;;;;;;;14.63;8.35;;;7.60;99.90;;;;;;5073900;28;20037;-57
2022/03/27 01:00:09;;;;;;;14.48;9.10;;;7.60;99.90;;;;;;5074188;28;20488;-55
2022/03/27 01:02:36;;;;;;;15.73;8.40;;;7.60;99.90;;;;;;5073424;28;20110;-57
2022/03/27 01:05:09;;;;;;;14.73;8.60;;;7.50;99.90;;;;;;5072033;28;20040;-57
2022/03/27 01:07:34;;;;;;;16.00;8.73;;;7.50;99.90;;;;;;5073726;28;20051;-57
2022/03/27 01:10:00;;;;;;;14.52;8.68;;;7.50;99.90;;;;;;5071875;28;20048;-57
2022/03/27 01:12:35;;;;;;;15.00;8.98;;;7.40;99.90;;;;;;5073554;28;20048;-57
2022/03/27 01:15:02;;;;;;;16.88;8.50;;;7.40;99.90;;;;;;5069912;28;20051;-56
2022/03/27 01:17:28;;;;;;;13.05;7.53;;;7.30;99.90;;;;;;5072920;28;20043;-57
2022/03/27 01:19:55;;;;;;;13.80;7.70;;;7.30;99.90;;;;;;5074144;28;20044;-57
2022/03/27 01:22:21;;;;;;;13.00;7.82;;;7.30;99.90;;;;;;5074397;28;20051;-57
2022/03/27 01:24:48;;;;;;;14.75;7.82;;;7.10;99.90;;;;;;5074150;28;20041;-57
2022/03/27 01:27:15;;;;;;;13.73;7.85;;;7.10;99.90;;;;;;5074271;28;20051;-57
2022/03/27 01:29:40;;;;;;;17.38;8.48;;;7.10;99.90;;;;;;5074089;28;20048;-57
2022/03/27 01:32:14;;;;;;;13.68;7.93;;;7.00;99.90;;;;;;5070914;28;20032;-57
2022/03/27 01:34:40;;;;;;;16.85;9.27;;;7.00;99.90;;;;;;5063807;28;20040;-56
2022/03/27 01:37:08;;;;;;;13.98;7.78;;;6.90;99.90;;;;;;5062069;28;20492;-57
2022/03/27 01:39:33;;;;;;;15.38;8.93;;;7.00;99.90;;;;;;5045430;28;20036;-57
2022/03/27 01:41:59;;;;;;;20.77;11.27;;;7.00;99.90;;;;;;5072324;28;20376;-55
2022/03/27 01:44:25;;;;;;;23.40;12.43;;;7.00;99.90;;;;;;5071927;28;20103;-56
2022/03/27 01:46:50;;;;;;;22.30;11.45;;;7.00;99.90;;;;;;5071677;28;20080;-57
2022/03/27 01:49:17;;;;;;;25.90;13.90;;;7.00;99.90;;;;;;5072337;28;20044;-57
2022/03/27 01:51:43;;;;;;;28.00;13.80;;;7.00;99.90;;;;;;5072122;28;20381;-57
2022/03/27 01:54:10;;;;;;;29.45;16.05;;;7.00;99.90;;;;;;5071652;28;20036;-57
2022/03/27 01:56:38;;;;;;;28.45;15.60;;;7.00;99.90;;;;;;5071600;28;20373;-57
2022/03/27 01:59:04;;;;;;;29.83;16.90;;;6.80;99.90;;;;;;5069006;28;20079;-57
2022/03/27 02:01:31;;;;;;;33.47;18.25;;;6.80;99.90;;;;;;5070559;28;20036;-56
2022/03/27 02:03:56;;;;;;;31.98;17.65;;;6.70;99.90;;;;;;5068207;28;20113;-57
2022/03/27 02:06:23;;;;;;;34.42;17.92;;;6.70;99.90;;;;;;5071622;28;20507;-56
2022/03/27 02:08:49;;;;;;;30.95;18.30;;;6.70;99.90;;;;;;5072186;28;20040;-57
2022/03/27 02:11:15;;;;;;;33.47;18.77;;;6.60;99.90;;;;;;5071808;28;20073;-55
2022/03/27 02:13:41;;;;;;;31.30;17.65;;;6.60;99.90;;;;;;5071366;28;20543;-56
2022/03/27 02:16:07;;;;;;;30.65;16.70;;;6.50;99.90;;;;;;5036577;28;20377;-56
2022/03/27 02:18:32;;;;;;;34.53;18.33;;;6.50;99.90;;;;;;5071662;28;20086;-56
2022/03/27 02:21:00;;;;;;;34.38;18.67;;;6.40;99.90;;;;;;5071772;28;20044;-57
2022/03/27 02:23:27;;;;;;;30.77;17.50;;;6.40;99.90;;;;;;5071219;28;20036;-57
2022/03/27 02:25:53;;;;;;;31.73;17.38;;;6.40;99.90;;;;;;5071434;28;20044;-57
2022/03/27 02:28:19;;;;;;;29.48;17.20;;;6.30;99.90;;;;;;5071363;28;20463;-57
2022/03/27 02:30:47;;;;;;;33.13;17.13;;;6.30;99.90;;;;;;5071570;28;20095;-56
2022/03/27 02:33:12;;;;;;;30.23;17.13;;;6.30;99.90;;;;;;5070826;28;20123;-57
2022/03/27 02:35:38;;;;;;;29.27;16.33;;;6.30;99.90;;;;;;5071413;28;20115;-56
2022/03/27 02:38:05;;;;;;;30.63;17.42;;;6.30;99.90;;;;;;5070997;28;20427;-57
2022/03/27 02:40:32;;;;;;;30.73;17.27;;;6.20;99.90;;;;;;5071336;28;20040;-57
2022/03/27 02:42:59;;;;;;;30.73;18.17;;;6.20;99.90;;;;;;5070991;28;20039;-56
2022/03/27 02:45:26;;;;;;;29.20;16.70;;;6.20;99.90;;;;;;5071423;28;20404;-57
2022/03/27 02:47:52;;;;;;;30.20;15.68;;;6.20;99.90;;;;;;5072069;28;20075;-56
2022/03/27 02:50:17;;;;;;;30.08;17.00;;;6.10;99.90;;;;;;5072533;28;20072;-57
2022/03/27 02:52:43;;;;;;;27.33;16.00;;;6.10;99.90;;;;;;5071036;28;20039;-56
2022/03/27 02:55:08;;;;;;;29.08;16.17;;;6.00;99.90;;;;;;5071601;28;20119;-56
2022/03/27 02:57:34;;;;;;;27.30;15.65;;;6.00;99.90;;;;;;5071317;28;20079;-57
2022/03/27 03:00:00;;;;;;;25.63;14.18;;;5.90;99.90;;;;;;5071371;28;20044;-56
2022/03/27 03:02:26;;;;;;;25.85;14.13;;;5.90;99.90;;;;;;5071150;28;20046;-55
2022/03/27 03:04:52;;;;;;;24.15;14.02;;;5.90;99.90;;;;;;5071281;28;20040;-57
2022/03/27 03:07:18;;;;;;;22.60;13.38;;;5.80;99.90;;;;;;5071781;28;20519;-57
2022/03/27 03:09:44;;;;;;;20.02;12.65;;;5.70;99.90;;;;;;5072623;28;20037;-57
2022/03/27 03:12:10;;;;;;;23.98;13.35;;;5.70;99.90;;;;;;5072215;28;20032;-57
2022/03/27 03:14:36;;;;;;;22.45;11.80;;;5.60;99.90;;;;;;5072426;28;20072;-57
2022/03/27 03:17:04;;;;;;;20.33;11.13;;;5.60;99.90;;;;;;5071857;28;20044;-57
2022/03/27 03:19:30;;;;;;;20.63;11.13;;;5.60;99.90;;;;;;5071647;28;20158;-57
2022/03/27 03:21:55;;;;;;;17.70;9.73;;;5.60;99.90;;;;;;5053808;28;20102;-57
2022/03/27 03:24:23;;;;;;;17.63;9.57;;;5.60;99.90;;;;;;5071879;28;20044;-57
2022/03/27 03:26:49;;;;;;;16.00;9.15;;;5.50;99.90;;;;;;5070711;28;20052;-57
2022/03/27 03:29:15;;;;;;;19.30;9.60;;;5.50;99.90;;;;;;5070921;28;20499;-57
2022/03/27 03:31:40;;;;;;;18.75;9.50;;;5.50;99.90;;;;;;5071839;28;20404;-57
2022/03/27 03:34:06;;;;;;;18.50;9.07;;;5.50;99.90;;;;;;5071260;28;20119;-57
2022/03/27 03:36:31;;;;;;;17.08;8.38;;;5.60;99.90;;;;;;5071601;28;20123;-57
2022/03/27 03:38:57;;;;;;;16.80;9.23;;;5.50;99.90;;;;;;5071413;28;20041;-57
2022/03/27 03:41:23;;;;;;;18.02;9.40;;;5.50;99.90;;;;;;5070667;28;20044;-57
2022/03/27 03:43:49;;;;;;;17.23;9.18;;;5.50;99.90;;;;;;5071122;28;20051;-57
2022/03/27 03:46:14;;;;;;;17.88;8.98;;;5.50;99.90;;;;;;5074027;28;20493;-57
2022/03/27 03:48:40;;;;;;;14.68;9.02;;;5.50;99.90;;;;;;5075611;28;20040;-56
2022/03/27 03:51:06;;;;;;;18.48;9.77;;;5.50;99.90;;;;;;5075321;28;20032;-57
2022/03/27 03:53:32;;;;;;;18.63;9.48;;;5.50;99.90;;;;;;5075017;28;20420;-57
2022/03/27 03:55:58;;;;;;;16.90;8.90;;;5.50;99.90;;;;;;5074712;28;20036;-56
2022/03/27 03:58:23;;;;;;;15.55;9.85;;;5.40;99.90;;;;;;5075693;28;20403;-56
2022/03/27 04:00:50;;;;;;;19.00;9.35;;;5.40;99.90;;;;;;5075652;28;20048;-57
2022/03/27 04:03:17;;;;;;;16.50;9.65;;;5.40;99.90;;;;;;5075483;28;20041;-57
2022/03/27 04:05:42;;;;;;;20.50;10.30;;;5.50;99.90;;;;;;5074722;28;20048;-57
2022/03/27 04:08:08;;;;;;;22.05;10.02;;;5.50;99.90;;;;;;5074804;28;20040;-57
2022/03/27 04:10:34;;;;;;;20.67;10.18;;;5.40;99.90;;;;;;5074312;28;20500;-57
2022/03/27 04:12:59;;;;;;;21.90;10.40;;;5.30;99.90;;;;;;5074536;28;20493;-57
2022/03/27 04:15:25;;;;;;;20.55;11.18;;;5.30;99.90;;;;;;5074039;28;20064;-57
2022/03/27 04:17:51;;;;;;;23.33;10.77;;;5.30;99.90;;;;;;5080404;22;20417;-51
2022/03/27 04:20:17;;;;;;;26.23;11.82;;;5.30;99.90;;;;;;5053833;28;20041;-51
2022/03/27 04:22:45;;;;;;;25.90;11.65;;;5.30;99.90;;;;;;5053306;28;20400;-51
2022/03/27 04:25:12;;;;;;;25.75;11.45;;;5.20;99.90;;;;;;5053405;28;20489;-50
2022/03/27 04:27:38;;;;;;;29.23;11.90;;;5.20;99.90;;;;;;5053810;28;20049;-50
2022/03/27 04:30:10;;;;;;;29.05;12.63;;;5.20;99.90;;;;;;5053330;28;20041;-51
2022/03/27 04:32:36;;;;;;;29.67;12.52;;;5.30;99.90;;;;;;5053647;28;20041;-51
2022/03/27 04:35:03;;;;;;;26.55;13.27;;;5.30;99.90;;;;;;5053465;28;20036;-50
2022/03/27 04:37:29;;;;;;;26.67;12.38;;;5.30;99.90;;;;;;5052735;28;20115;-51
2022/03/27 04:40:01;;;;;;;26.25;12.20;;;5.30;99.90;;;;;;5052873;28;20080;-50
2022/03/27 04:42:27;;;;;;;26.73;13.15;;;5.20;99.90;;;;;;5033556;28;20048;-51
2022/03/27 04:44:52;;;;;;;27.33;12.55;;;5.20;99.90;;;;;;5041196;28;20045;-51
2022/03/27 04:47:18;;;;;;;30.92;12.38;;;5.20;99.90;;;;;;5053042;28;20044;-51
2022/03/27 04:49:43;;;;;;;27.70;13.27;;;5.10;99.90;;;;;;5053175;28;20561;-50
2022/03/27 04:52:09;;;;;;;28.55;13.05;;;5.20;99.90;;;;;;5052850;28;20481;-51
2022/03/27 04:54:35;;;;;;;25.23;12.52;;;5.10;99.90;;;;;;5052958;28;20045;-50
2022/03/27 04:57:00;;;;;;;27.10;12.95;;;5.10;99.90;;;;;;5034442;28;20052;-50
2022/03/27 04:59:26;;;;;;;30.42;12.75;;;5.00;99.90;;;;;;5052498;28;20484;-52
2022/03/27 05:01:51;;;;;;;28.38;13.23;;;5.10;99.90;;;;;;5052978;28;20044;-51
2022/03/27 05:04:17;;;;;;;28.63;12.43;;;5.00;99.90;;;;;;5052865;28;20037;-50
2022/03/27 05:06:43;;;;;;;24.48;11.82;;;5.10;99.90;;;;;;5052506;28;20116;-51
2022/03/27 05:09:08;;;;;;;34.20;12.63;;;5.00;99.90;;;;;;5052831;28;20121;-51
2022/03/27 05:11:34;;;;;;;27.95;12.70;;;5.00;99.90;;;;;;5052759;28;20067;-53
2022/03/27 05:13:59;;;;;;;24.48;11.93;;;5.10;99.90;;;;;;5052285;28;20485;-54
2022/03/27 05:16:25;;;;;;;30.02;12.20;;;5.00;99.90;;;;;;5052492;28;20317;-51
2022/03/27 05:18:50;;;;;;;26.75;11.85;;;5.00;99.90;;;;;;5052435;28;20082;-50
2022/03/27 05:21:16;;;;;;;28.02;12.23;;;5.00;99.90;;;;;;5052428;28;20041;-51
2022/03/27 05:23:42;;;;;;;25.80;11.85;;;5.00;99.90;;;;;;5052661;28;20068;-50
2022/03/27 05:26:08;;;;;;;29.15;12.55;;;5.00;99.90;;;;;;5052255;28;20041;-51
2022/03/27 05:28:34;;;;;;;32.10;13.90;;;4.90;99.90;;;;;;5052047;28;20099;-50
2022/03/27 05:31:02;;;;;;;28.45;13.05;;;4.90;99.90;;;;;;5052410;28;20440;-51
2022/03/27 05:33:28;;;;;;;32.92;12.65;;;5.00;99.90;;;;;;5052407;28;20120;-51
2022/03/27 05:35:54;;;;;;;27.85;13.68;;;5.00;99.90;;;;;;5051857;28;20119;-51
2022/03/27 05:38:19;;;;;;;35.00;15.55;;;5.00;99.90;;;;;;5052244;28;20045;-51
2022/03/27 05:40:45;;;;;;;35.15;16.65;;;5.00;99.90;;;;;;5052104;28;20072;-51
2022/03/27 05:43:11;;;;;;;38.58;17.20;;;4.90;99.90;;;;;;5052002;28;20033;-51
2022/03/27 05:45:36;;;;;;;36.10;14.63;;;5.00;99.90;;;;;;5052135;28;20052;-50
2022/03/27 05:48:03;;;;;;;30.13;14.65;;;5.00;99.90;;;;;;5051749;28;20052;-51
2022/03/27 05:50:29;;;;;;;27.98;13.35;;;5.00;99.90;;;;;;5033714;28;20080;-51
2022/03/27 05:52:55;;;;;;;34.08;12.65;;;5.10;99.90;;;;;;5051868;28;20125;-50
2022/03/27 05:55:22;;;;;;;25.55;11.82;;;5.10;99.90;;;;;;5051781;28;20481;-50
2022/03/27 05:57:48;;;;;;;30.02;12.65;;;5.10;99.90;;;;;;5051737;28;20045;-51
2022/03/27 06:00:20;;;;;;;32.15;12.18;;;5.20;99.90;;;;;;5051971;28;20037;-51
2022/03/27 06:02:46;;;;;;;32.58;12.05;;;5.30;99.90;;;;;;5051924;28;20033;-51
2022/03/27 06:05:12;;;;;;;37.97;12.27;;;5.50;99.90;;;;;;5045260;28;20115;-51
2022/03/27 06:07:46;;;;;;;27.92;11.65;;;5.50;99.90;;;;;;5039081;28;20041;-54
2022/03/27 06:10:12;;;;;;;35.53;11.55;;;5.70;99.90;;;;;;5042561;28;20036;-51
2022/03/27 06:12:39;;;;;;;29.67;11.05;;;5.60;99.90;;;;;;5047708;28;20037;-50
2022/03/27 06:15:05;;;;;;;35.35;11.88;;;5.70;99.90;;;;;;5037828;28;20554;-51
2022/03/27 06:17:41;;;;;;;35.30;11.48;;;5.70;99.90;;;;;;5039282;28;20057;-50
2022/03/27 06:20:08;;;;;;;39.40;11.65;;;5.80;99.90;;;;;;5040256;28;20044;-51
2022/03/27 06:22:34;;;;;;;37.75;12.70;;;5.80;99.90;;;;;;5050072;28;20064;-51
2022/03/27 06:25:00;;;;;;;34.28;12.27;;;5.80;99.90;;;;;;5041157;28;20452;-51
2022/03/27 06:27:25;;;;;;;42.28;13.90;;;5.90;99.90;;;;;;5046547;28;20045;-50
2022/03/27 06:29:51;;;;;;;35.38;12.52;;;6.00;99.90;;;;;;5029888;28;20071;-51
2022/03/27 06:32:16;;;;;;;30.92;11.90;;;5.90;99.90;;;;;;5042662;28;20476;-51
2022/03/27 06:34:42;;;;;;;37.20;12.90;;;6.00;99.90;;;;;;5049197;28;20044;-51
2022/03/27 06:37:08;;;;;;;37.05;13.20;;;5.90;99.90;;;;;;5031199;28;20060;-50
2022/03/27 06:39:33;;;;;;;37.80;13.27;;;6.00;99.90;;;;;;5040995;28;20467;-50
2022/03/27 06:41:59;;;;;;;41.30;13.20;;;6.10;99.90;;;;;;5046196;28;20124;-51
2022/03/27 06:44:25;;;;;;;42.40;14.63;;;6.10;99.90;;;;;;5051507;28;20059;-51
2022/03/27 06:46:50;;;;;;;41.72;14.98;;;6.30;99.90;;;;;;5050837;28;20389;-51
2022/03/27 06:49:16;;;;;;;40.67;13.07;;;6.30;99.90;;;;;;5051188;28;20477;-51
2022/03/27 06:51:41;;;;;;;38.90;13.30;;;6.40;99.90;;;;;;5051341;28;20040;-51
2022/03/27 06:54:07;;;;;;;43.22;16.38;;;6.50;99.90;;;;;;5050989;28;20520;-51
2022/03/27 06:56:33;;;;;;;47.72;14.73;;;6.50;99.90;;;;;;5051048;28;20076;-51
2022/03/27 06:58:58;;;;;;;50.83;14.95;;;6.40;99.90;;;;;;5051205;28;20044;-50
2022/03/27 07:04:09;;;;;;;42.65;14.00;;;6.50;99.90;;;;;;5048562;28;20067;-51
2022/03/27 07:06:35;;;;;;;42.42;14.48;;;6.70;99.90;;;;;;5023224;28;20045;-52
2022/03/27 07:09:01;;;;;;;45.45;14.15;;;6.70;99.90;;;;;;5051058;28;20048;-50
2022/03/27 07:11:27;;;;;;;45.55;15.00;;;6.70;99.90;;;;;;5033130;28;20140;-50
2022/03/27 07:13:53;;;;;;;44.33;14.38;;;6.80;99.90;;;;;;5050550;28;20504;-49
2022/03/27 07:16:18;;;;;;;46.65;15.18;;;6.80;99.90;;;;;;5050778;28;20041;-51
2022/03/27 07:18:49;;;;;;;44.75;14.27;;;6.90;99.90;;;;;;5033596;28;20489;-50
2022/03/27 07:21:17;;;;;;;52.05;16.38;;;7.00;99.90;;;;;;5054500;28;20114;-50
2022/03/27 07:23:44;;;;;;;44.00;12.73;;;7.10;99.90;;;;;;5054895;28;20122;-50
2022/03/27 07:26:10;;;;;;;50.13;12.90;;;7.00;99.90;;;;;;5054521;28;20087;-54
2022/03/27 07:28:36;;;;;;;45.40;12.05;;;7.00;99.90;;;;;;5054255;28;20037;-53
2022/03/27 07:31:02;;;;;;;39.20;12.48;;;7.10;99.90;;;;;;5054601;28;20124;-54
2022/03/27 07:33:28;;;;;;;36.70;13.52;;;7.30;99.90;;;;;;5054268;28;20037;-52
2022/03/27 07:35:54;;;;;;;54.15;13.70;;;7.20;99.90;;;;;;5049473;28;20040;-51
2022/03/27 07:38:20;;;;;;;38.10;12.00;;;7.20;99.90;;;;;;5045909;28;20032;-54
2022/03/27 07:40:45;;;;;;;52.90;13.65;;;7.30;99.90;;;;;;5049982;28;20402;-51
2022/03/27 07:43:11;;;;;;;36.70;10.93;;;7.40;99.90;;;;;;5034234;28;20409;-51
2022/03/27 07:45:37;;;;;;;42.45;12.65;;;7.50;99.90;;;;;;5041303;28;20101;-51
2022/03/27 07:48:03;;;;;;;38.40;10.82;;;7.70;99.90;;;;;;5039937;28;20469;-51
2022/03/27 07:50:30;;;;;;;42.17;11.60;;;7.70;99.90;;;;;;5043730;28;20079;-51
2022/03/27 07:52:56;;;;;;;40.38;12.32;;;7.80;99.90;;;;;;5044282;28;20041;-51
2022/03/27 07:55:22;;;;;;;39.85;12.30;;;7.80;99.90;;;;;;5044446;28;20083;-50
2022/03/27 07:57:48;;;;;;;39.30;12.95;;;7.80;99.90;;;;;;5044927;28;20041;-51
2022/03/27 08:00:16;;;;;;;38.08;11.98;;;7.70;99.90;;;;;;5041961;28;20044;-51
2022/03/27 08:02:42;;;;;;;50.55;12.75;;;7.60;99.90;;;;;;5039612;28;20125;-51
2022/03/27 08:05:09;;;;;;;41.65;11.93;;;7.60;99.90;;;;;;5049154;28;20477;-51
2022/03/27 08:07:35;;;;;;;40.22;11.70;;;7.60;99.90;;;;;;5042413;28;20037;-51
2022/03/27 08:10:01;;;;;;;39.65;11.25;;;7.50;99.90;;;;;;5044441;28;20124;-51
2022/03/27 08:12:27;;;;;;;41.70;11.45;;;7.50;99.90;;;;;;5049380;28;20131;-51
2022/03/27 08:14:53;;;;;;;31.13;11.07;;;7.50;99.90;;;;;;5028025;28;20045;-51
2022/03/27 08:17:20;;;;;;;37.83;9.98;;;7.50;99.90;;;;;;5052285;28;20043;-51
2022/03/27 08:19:47;;;;;;;38.15;12.10;;;7.50;99.90;;;;;;5052309;28;20041;-51
2022/03/27 08:22:13;;;;;;;37.92;11.10;;;7.50;99.90;;;;;;5049051;28;20441;-51
2022/03/27 08:24:39;;;;;;;41.92;12.20;;;7.50;99.90;;;;;;5046895;28;20131;-52
2022/03/27 08:27:07;;;;;;;27.50;8.63;;;7.50;99.90;;;;;;5045069;28;20547;-51
2022/03/27 08:29:34;;;;;;;39.10;10.80;;;7.60;99.90;;;;;;5049088;28;20049;-52
2022/03/27 08:32:03;;;;;;;34.85;9.43;;;7.90;99.90;;;;;;5047284;28;20451;-51
2022/03/27 08:34:31;;;;;;;37.55;10.95;;;7.90;99.90;;;;;;5043136;28;20374;-51
2022/03/27 08:36:58;;;;;;;46.97;10.73;;;7.90;99.90;;;;;;5037686;28;20091;-51
2022/03/27 08:39:25;;;;;;;35.17;11.20;;;8.00;99.90;;;;;;5052378;28;20028;-51
2022/03/27 08:41:54;;;;;;;30.60;8.23;;;8.10;99.90;;;;;;5023963;28;20041;-51
2022/03/27 08:44:20;;;;;;;40.00;11.85;;;8.20;99.90;;;;;;5025593;28;20053;-51
2022/03/27 08:46:47;;;;;;;33.22;10.60;;;8.20;99.90;;;;;;5043081;28;20040;-51
2022/03/27 08:49:15;;;;;;;39.45;11.45;;;8.10;99.90;;;;;;5041663;28;20049;-53
2022/03/27 08:51:56;;;;;;;35.38;10.40;;;8.10;99.90;;;;;;5043788;28;20033;-52
2022/03/27 08:54:25;;;;;;;37.13;9.32;;;8.10;99.90;;;;;;5049389;28;20055;-51
2022/03/27 08:57:04;;;;;;;41.78;10.98;;;8.20;99.90;;;;;;5040583;28;20034;-54
2022/03/27 08:59:31;;;;;;;40.50;10.40;;;8.40;99.90;;;;;;5042843;28;20033;-52
2022/03/27 09:01:58;;;;;;;36.63;9.23;;;8.50;99.90;;;;;;5042195;28;20044;-52
2022/03/27 09:04:24;;;;;;;37.42;9.55;;;8.70;99.90;;;;;;5042171;28;20036;-54
2022/03/27 09:06:49;;;;;;;35.88;10.13;;;8.80;99.90;;;;;;5045582;28;20481;-51
2022/03/27 09:09:15;;;;;;;33.78;9.25;;;8.80;99.90;;;;;;5043495;28;20453;-54
2022/03/27 09:11:43;;;;;;;32.55;8.68;;;8.90;99.90;;;;;;5039935;28;20424;-52
2022/03/27 09:14:10;;;;;;;39.08;10.10;;;9.00;99.90;;;;;;5040265;28;20451;-54
2022/03/27 09:17:01;;;;;;;34.42;8.07;;;9.20;99.90;;;;;;5042112;28;20033;-55
2022/03/27 09:19:34;;;;;;;28.55;8.27;;;9.30;99.90;;;;;;5044200;28;20132;-54
2022/03/27 09:22:12;;;;;;;29.50;8.23;;;9.30;99.90;;;;;;5048542;28;20062;-55
2022/03/27 09:24:38;;;;;;;32.72;9.43;;;9.30;99.90;;;;;;5042975;28;20044;-55
2022/03/27 09:27:05;;;;;;;36.00;9.35;;;9.40;99.90;;;;;;5010156;28;20033;-55
2022/03/27 09:29:50;;;;;;;32.17;8.38;;;9.60;99.90;;;;;;5038108;28;20122;-55
2022/03/27 09:32:30;;;;;;;36.88;9.95;;;9.60;99.90;;;;;;5038091;28;20060;-55
2022/03/27 09:35:04;;;;;;;29.30;8.27;;;9.60;99.90;;;;;;5041046;28;20552;-52
2022/03/27 09:37:41;;;;;;;30.65;7.88;;;9.70;99.90;;;;;;5036634;28;20159;-52
2022/03/27 09:40:09;;;;;;;36.63;9.20;;;9.80;99.90;;;;;;5044065;28;20484;-53
2022/03/27 09:42:39;;;;;;;38.90;8.65;;;9.90;99.90;;;;;;5035446;28;20056;-54
2022/03/27 09:45:16;;;;;;;28.45;8.57;;;9.80;99.90;;;;;;5017858;28;20123;-55
2022/03/27 09:47:44;;;;;;;33.60;9.00;;;9.90;99.90;;;;;;5038980;28;20037;-53
2022/03/27 09:50:29;;;;;;;34.50;9.38;;;9.90;99.90;;;;;;5041736;28;20059;-52
2022/03/27 09:53:27;;;;;;;30.38;8.25;;;10.00;99.90;;;;;;5039851;28;20051;-53
2022/03/27 09:56:15;;;;;;;38.20;9.80;;;10.20;99.90;;;;;;5051409;28;20067;-52
2022/03/27 09:58:45;;;;;;;28.63;8.40;;;10.20;99.90;;;;;;5039109;28;20037;-53
2022/03/27 10:01:16;;;;;;;30.88;8.93;;;10.30;99.90;;;;;;5044013;28;20040;-52
2022/03/27 10:04:04;;;;;;;30.77;8.20;;;10.50;99.90;;;;;;5044143;28;20393;-51
2022/03/27 10:06:37;;;;;;;32.05;8.48;;;10.50;99.90;;;;;;5044468;28;20106;-52
2022/03/27 10:09:05;;;;;;;26.90;7.18;;;10.50;99.90;;;;;;5050544;28;20052;-52
2022/03/27 10:11:31;;;;;;;25.67;7.80;;;10.60;99.90;;;;;;5034583;28;20552;-53
2022/03/27 10:13:58;;;;;;;25.83;7.22;;;10.60;99.90;;;;;;5044721;28;20052;-52
2022/03/27 10:16:29;;;;;;;26.02;7.68;;;10.70;99.90;;;;;;5037858;28;20037;-50
2022/03/27 10:19:02;;;;;;;29.10;7.68;;;10.90;99.90;;;;;;5041809;28;20033;-52
2022/03/27 10:21:29;;;;;;;24.02;7.07;;;11.00;99.70;;;;;;5043820;28;20041;-50
2022/03/27 10:24:25;;;;;;;29.02;8.02;;;11.00;99.90;;;;;;5048090;28;20037;-50
2022/03/27 10:26:55;;;;;;;30.17;8.52;;;11.10;99.70;;;;;;5039642;28;20455;-53
2022/03/27 10:29:23;;;;;;;32.03;8.20;;;11.20;98.70;;;;;;5042171;28;20041;-50
2022/03/27 10:31:48;;;;;;;35.03;8.90;;;11.20;99.60;;;;;;5044090;28;20067;-50
2022/03/27 10:34:14;;;;;;;24.90;7.70;;;11.30;99.50;;;;;;5039974;28;20401;-50
2022/03/27 10:37:01;;;;;;;32.15;7.13;;;11.40;98.10;;;;;;5041753;28;20036;-50
2022/03/27 10:39:43;;;;;;;23.40;7.45;;;11.40;97.90;;;;;;5049856;28;20045;-53
2022/03/27 10:42:34;;;;;;;24.73;8.00;;;11.40;96.70;;;;;;5049456;28;20094;-50
2022/03/27 10:45:06;;;;;;;34.88;9.02;;;11.50;97.10;;;;;;5039545;28;20459;-51
2022/03/27 10:47:32;;;;;;;28.58;7.68;;;11.60;97.00;;;;;;5049511;28;20064;-50
2022/03/27 10:50:00;;;;;;;26.95;7.75;;;11.70;97.10;;;;;;5050846;28;20033;-49
2022/03/27 10:52:26;;;;;;;29.33;7.75;;;11.80;96.40;;;;;;5050271;28;20071;-53
2022/03/27 10:55:00;;;;;;;30.63;8.10;;;11.90;94.40;;;;;;5053355;28;20036;-50
2022/03/27 10:57:34;;;;;;;22.95;5.32;;;12.00;94.80;;;;;;5054707;28;20045;-50
2022/03/27 11:00:00;;;;;;;24.45;6.40;;;12.10;90.40;;;;;;5055058;28;20033;-50
2022/03/27 11:02:44;;;;;;;29.75;7.18;;;12.10;90.80;;;;;;5042614;28;20448;-50
2022/03/27 11:05:35;;;;;;;27.92;6.15;;;12.20;90.60;;;;;;5052576;28;20068;-50
2022/03/27 11:08:16;;;;;;;25.40;6.47;;;12.20;91.80;;;;;;5046486;28;20092;-50
2022/03/27 11:10:50;;;;;;;24.08;6.90;;;12.20;91.00;;;;;;5045043;28;20041;-50
2022/03/27 11:13:30;;;;;;;23.15;5.47;;;12.30;91.90;;;;;;5054810;28;20068;-50
2022/03/27 11:16:13;;;;;;;24.55;6.25;;;12.30;92.00;;;;;;5054502;28;20490;-50
2022/03/27 11:18:41;;;;;;;22.38;6.07;;;12.50;89.90;;;;;;5053856;28;20068;-51
2022/03/27 11:21:10;;;;;;;29.80;6.97;;;12.60;80.50;;;;;;5036827;28;20052;-50
2022/03/27 11:23:37;;;;;;;29.35;6.43;;;12.70;83.10;;;;;;5054176;28;20123;-50
2022/03/27 11:26:25;;;;;;;27.30;7.10;;;12.70;84.20;;;;;;5053954;28;20037;-52
2022/03/27 11:28:53;;;;;;;33.83;8.13;;;12.70;83.30;;;;;;5054419;28;20118;-50
2022/03/27 11:31:23;;;;;;;24.80;6.07;;;12.80;81.40;;;;;;5054399;28;20095;-52
2022/03/27 11:34:04;;;;;;;24.30;4.97;;;12.90;77.20;;;;;;5036170;28;20517;-50
2022/03/27 11:36:31;;;;;;;19.08;5.32;;;13.00;76.00;;;;;;5051533;28;20489;-50
2022/03/27 11:39:11;;;;;;;25.65;5.75;;;13.10;75.60;;;;;;5026063;28;20382;-50
2022/03/27 11:41:43;;;;;;;21.10;6.18;;;13.10;76.90;;;;;;5045529;28;20044;-54
2022/03/27 11:47:19;;;;;;;23.90;5.70;;;13.30;75.80;;;;;;5048225;28;20052;-50
2022/03/27 11:49:45;;;;;;;25.20;6.13;;;13.40;72.00;;;;;;5028560;28;20051;-50
2022/03/27 11:52:14;;;;;;;23.55;6.20;;;13.40;75.00;;;;;;5053595;28;20032;-50
2022/03/27 11:54:40;;;;;;;25.98;6.57;;;13.40;74.30;;;;;;5042050;28;20460;-50
2022/03/27 11:57:08;;;;;;;25.92;6.18;;;13.30;75.70;;;;;;5039284;28;20116;-50
2022/03/27 11:59:50;;;;;;;26.80;6.32;;;13.40;77.70;;;;;;5045346;28;20496;-50
2022/03/27 12:02:17;;;;;;;;;;;13.60;74.10;;;;;;5050980;28;20037;-52
2022/03/27 12:04:54;;;;;;;29.77;6.32;;;13.70;70.80;;;;;;5049620;28;19943;-50
2022/03/27 12:07:24;;;;;;;22.35;5.75;;;13.70;71.60;;;;;;5047523;28;20029;-53
2022/03/27 12:10:01;;;;;;;25.52;5.97;;;13.80;70.30;;;;;;5053174;28;20120;-50
2022/03/27 12:12:28;;;;;;;26.63;6.38;;;13.70;72.50;;;;;;5049265;28;20041;-50
2022/03/27 12:15:04;;;;;;;28.83;6.25;;;13.90;71.70;;;;;;5037873;28;20042;-50
2022/03/27 12:17:35;;;;;;;29.35;6.70;;;13.90;70.60;;;;;;5039319;28;20025;-50
2022/03/27 12:20:08;;;;;;;19.15;5.40;;;14.00;70.50;;;;;;5046468;28;20033;-51
2022/03/27 12:22:46;;;;;;;19.40;5.95;;;14.10;68.70;;;;;;5047077;28;20045;-50
2022/03/27 12:25:15;;;;;;;25.98;6.50;;;14.10;69.80;;;;;;5050654;28;20118;-50
2022/03/27 12:30:37;;;;;;;23.10;6.20;;;14.10;69.60;;;;;;4981533;28;20054;-50
2022/03/27 12:33:05;;;;;;;19.00;5.35;;;14.20;66.30;;;;;;5052348;28;20041;-50
2022/03/27 12:35:33;;;;;;;25.48;6.38;;;14.20;68.10;;;;;;5053036;28;20493;-52
2022/03/27 12:37:59;;;;;;;23.73;6.57;;;14.30;66.50;;;;;;5052951;28;20444;-50
2022/03/27 12:40:26;;;;;;;25.27;5.88;;;14.40;65.30;;;;;;5053491;28;20053;-51
2022/03/27 12:42:53;;;;;;;20.08;5.72;;;14.40;65.90;;;;;;5052644;28;20508;-53
2022/03/27 12:45:32;;;;;;;25.13;5.78;;;14.40;64.50;;;;;;5033231;28;20048;-52
2022/03/27 12:48:12;;;;;;;30.55;6.53;;;14.40;65.10;;;;;;5015445;28;20049;-50
2022/03/27 12:50:41;;;;;;;23.25;5.38;;;14.50;66.20;;;;;;5033206;28;20046;-51
2022/03/27 12:53:12;;;;;;;26.00;5.90;;;14.50;64.80;;;;;;5051420;28;20435;-50
2022/03/27 12:55:45;;;;;;;20.90;5.93;;;14.60;65.90;;;;;;5035131;28;20087;-50